Center Port, New York
Current Conditions -  °F | °C
As of 1:53 AM on Monday 24 Nov 2014 (Local Time) from KFRG Reporting Station
Light Rain Light Rain  
Wind Chill: 58°   Ceiling: 3400
Heat Index: 58°   Visibility: 5mi
Dew Point: 53°   Wind: 14mph
Humidity: 84%   Direction: 140°SE
Pressure: 29.93"   Gusts: NA
Location:  40.8931°N, 73.3717°W
Report Text: KFRG 240653Z AUTO 14012KT 5SM -RA SCT026 OVC034 14/12 A2993 RMK AO2 RAB48 SLP135 P0000 T01440117
Loading
Personal Weather Stations






























Interactive Weather Map New forecast layout! Learn more

10-Day Weather Forecast

Advertisements
Track Severe Weather on mobile